Time;durP1;ratioP1;P1;durP2;ratioP2;P2;SDS_P1;SDS_P2;PMS_P1;PMS_P2;Temp;Humidity;BMP_temperature;BMP_pressure;BME280_temperature;BME280_humidity;BME280_pressure;Samples;Min_cycle;Max_cycle;Signal;HPM_P1;HPM_P2
2021/01/22 00:01:59;;;;;;;2.00;1.20;;;9.70;99.90;;;;;;5056868;28;20255;-67
2021/01/22 00:04:26;;;;;;;2.40;1.17;;;9.70;99.90;;;;;;5059137;28;20172;-66
2021/01/22 00:06:52;;;;;;;1.10;0.60;;;9.70;99.90;;;;;;5052043;28;20429;-66
2021/01/22 00:09:17;;;;;;;1.40;0.70;;;9.70;99.90;;;;;;5054789;28;20458;-66
2021/01/22 00:11:43;;;;;;;2.20;0.80;;;9.70;99.90;;;;;;5059912;28;20429;-67
2021/01/22 00:14:08;;;;;;;1.60;1.00;;;9.70;99.90;;;;;;5058288;28;20185;-66
2021/01/22 00:16:34;;;;;;;2.03;1.00;;;9.70;99.90;;;;;;5060568;28;20258;-66
2021/01/22 00:18:59;;;;;;;1.83;0.93;;;9.70;99.90;;;;;;5058691;28;20230;-66
2021/01/22 00:21:25;;;;;;;1.10;0.83;;;9.70;99.90;;;;;;5065270;28;22401;-66
2021/01/22 00:23:50;;;;;;;1.90;1.07;;;9.70;99.90;;;;;;5053106;28;20190;-66
2021/01/22 00:26:16;;;;;;;2.70;0.90;;;9.70;99.90;;;;;;5054947;28;20178;-66
2021/01/22 00:28:42;;;;;;;2.93;1.10;;;9.70;99.90;;;;;;5056576;28;20187;-66
2021/01/22 00:31:07;;;;;;;3.73;1.57;;;9.70;99.90;;;;;;5054535;28;20640;-67
2021/01/22 00:33:32;;;;;;;2.47;1.00;;;9.70;99.90;;;;;;5053915;28;20693;-66
2021/01/22 00:35:58;;;;;;;2.47;1.00;;;9.70;99.90;;;;;;5055508;28;20191;-66
2021/01/22 00:38:24;;;;;;;4.47;2.13;;;9.70;99.90;;;;;;5054891;28;20208;-66
2021/01/22 00:40:49;;;;;;;1.97;1.60;;;9.70;99.90;;;;;;5056156;28;20174;-66
2021/01/22 00:43:15;;;;;;;3.00;1.33;;;9.80;99.90;;;;;;5055815;28;20176;-66
2021/01/22 00:45:40;;;;;;;1.40;1.07;;;9.80;99.90;;;;;;5054593;28;20233;-66
2021/01/22 00:48:06;;;;;;;2.20;1.20;;;9.80;99.90;;;;;;5059527;28;20226;-66
2021/01/22 00:50:31;;;;;;;3.10;1.30;;;9.80;99.90;;;;;;5054332;28;20508;-66
2021/01/22 00:52:57;;;;;;;3.60;1.10;;;9.80;99.90;;;;;;5067099;28;20541;-66
2021/01/22 00:55:23;;;;;;;2.83;1.47;;;9.80;99.90;;;;;;5053677;28;20259;-66
2021/01/22 00:57:48;;;;;;;2.60;1.30;;;9.80;99.90;;;;;;5054559;28;20258;-66
2021/01/22 01:00:14;;;;;;;2.87;1.30;;;9.80;99.90;;;;;;5058056;28;20574;-66
2021/01/22 01:02:40;;;;;;;4.97;1.77;;;9.90;99.90;;;;;;5054059;28;20184;-66
2021/01/22 01:05:06;;;;;;;7.37;1.70;;;9.80;99.90;;;;;;5052614;28;20822;-66
2021/01/22 01:07:34;;;;;;;5.63;1.57;;;9.90;99.90;;;;;;5063521;28;20180;-66
2021/01/22 01:09:59;;;;;;;5.63;1.40;;;9.90;99.90;;;;;;5057305;28;20534;-66
2021/01/22 01:12:25;;;;;;;3.50;1.23;;;9.90;99.90;;;;;;5063313;28;20521;-66
2021/01/22 01:14:50;;;;;;;5.10;1.97;;;9.90;99.90;;;;;;5062274;28;20187;-66
2021/01/22 01:17:16;;;;;;;3.77;1.90;;;9.90;99.90;;;;;;5052882;28;20182;-66
2021/01/22 01:19:41;;;;;;;3.60;1.50;;;9.90;99.90;;;;;;5062120;28;20199;-66
2021/01/22 01:22:07;;;;;;;5.07;2.10;;;9.90;99.90;;;;;;5051939;28;20271;-66
2021/01/22 01:24:32;;;;;;;4.37;1.63;;;9.80;99.90;;;;;;5061169;28;20214;-66
2021/01/22 01:26:58;;;;;;;4.87;1.87;;;9.80;99.90;;;;;;5058577;28;20206;-66
2021/01/22 01:29:23;;;;;;;6.13;2.07;;;9.80;99.90;;;;;;5057229;28;20175;-66
2021/01/22 01:31:49;;;;;;;6.73;1.63;;;9.80;99.90;;;;;;5062925;28;20176;-66
2021/01/22 01:34:14;;;;;;;6.40;2.07;;;9.70;99.90;;;;;;5056033;28;20586;-66
2021/01/22 01:36:40;;;;;;;3.90;1.53;;;9.70;99.90;;;;;;5055854;28;20188;-67
2021/01/22 01:39:05;;;;;;;3.80;1.83;;;9.70;99.90;;;;;;5061362;28;20243;-66
2021/01/22 01:41:31;;;;;;;3.17;1.67;;;9.70;99.90;;;;;;5064167;28;20706;-66
2021/01/22 01:43:57;;;;;;;6.73;2.07;;;9.70;99.90;;;;;;5056189;28;20699;-66
2021/01/22 01:46:22;;;;;;;3.73;2.10;;;9.60;99.90;;;;;;5056674;28;20164;-66
2021/01/22 01:48:48;;;;;;;1.77;1.60;;;9.60;99.90;;;;;;5058183;28;20181;-66
2021/01/22 01:51:13;;;;;;;2.80;1.40;;;9.60;99.90;;;;;;5060503;28;20172;-66
2021/01/22 01:53:39;;;;;;;3.30;1.40;;;9.60;99.90;;;;;;5069795;28;20650;-66
2021/01/22 01:56:05;;;;;;;4.50;2.00;;;9.60;99.90;;;;;;5061029;28;20511;-66
2021/01/22 01:58:31;;;;;;;4.17;1.77;;;9.60;99.90;;;;;;5056043;28;20208;-66
2021/01/22 02:00:57;;;;;;;3.47;1.50;;;9.60;99.90;;;;;;5058500;28;20421;-66
2021/01/22 02:03:23;;;;;;;3.13;1.30;;;9.60;99.90;;;;;;5055862;28;20172;-66
2021/01/22 02:05:48;;;;;;;1.93;1.30;;;9.60;99.90;;;;;;5056579;28;20811;-66
2021/01/22 02:08:15;;;;;;;6.20;1.60;;;9.60;99.90;;;;;;5056584;28;20180;-66
2021/01/22 02:10:41;;;;;;;2.40;1.30;;;9.60;99.90;;;;;;5057717;28;20263;-67
2021/01/22 02:13:08;;;;;;;5.37;1.70;;;9.60;99.90;;;;;;5059294;28;20442;-64
2021/01/22 02:15:34;;;;;;;3.37;1.60;;;9.50;99.90;;;;;;5057513;28;20938;-66
2021/01/22 02:18:00;;;;;;;1.33;0.87;;;9.50;99.90;;;;;;5056594;28;20510;-66
2021/01/22 02:20:39;;;;;;;2.20;1.27;;;9.40;99.90;;;;;;5061628;28;20176;-66
2021/01/22 02:23:06;;;;;;;2.20;0.83;;;9.20;99.90;;;;;;5061642;28;20429;-66
2021/01/22 02:25:37;;;;;;;2.70;1.07;;;9.10;99.90;;;;;;5054904;28;20799;-66
2021/01/22 02:28:09;;;;;;;2.10;0.90;;;9.00;99.90;;;;;;5058829;28;20426;-66
2021/01/22 02:30:35;;;;;;;1.20;1.10;;;8.80;99.90;;;;;;5054932;28;20430;-67
2021/01/22 02:33:03;;;;;;;1.33;1.00;;;8.70;99.90;;;;;;5060480;28;20815;-66
2021/01/22 02:35:28;;;;;;;1.43;1.33;;;8.60;99.90;;;;;;5057486;28;20200;-66
2021/01/22 02:37:55;;;;;;;2.33;1.50;;;8.50;99.90;;;;;;5061582;28;20507;-66
2021/01/22 02:40:22;;;;;;;6.80;4.03;;;8.40;99.90;;;;;;5064109;28;20204;-66
2021/01/22 02:42:50;;;;;;;4.97;3.10;;;8.40;99.90;;;;;;5067792;28;20464;-66
2021/01/22 02:45:17;;;;;;;7.30;4.47;;;8.30;99.90;;;;;;5056057;28;20422;-66
2021/01/22 02:47:50;;;;;;;10.10;6.80;;;8.20;99.90;;;;;;5061867;28;20422;-66
2021/01/22 02:50:17;;;;;;;6.60;4.73;;;8.20;99.90;;;;;;5059058;28;20466;-66
2021/01/22 02:52:43;;;;;;;5.07;3.40;;;8.10;99.90;;;;;;5054824;28;20525;-66
2021/01/22 02:55:11;;;;;;;3.20;2.33;;;7.90;99.90;;;;;;5061800;28;20546;-66
2021/01/22 02:57:49;;;;;;;3.70;2.37;;;7.80;99.90;;;;;;5060139;28;20465;-66
2021/01/22 03:00:20;;;;;;;1.27;1.17;;;7.70;99.90;;;;;;5058268;28;21030;-67
2021/01/22 03:03:04;;;;;;;1.50;1.40;;;7.50;99.90;;;;;;5058934;28;20546;-66
2021/01/22 03:05:32;;;;;;;1.70;1.60;;;7.40;99.90;;;;;;5053041;28;20756;-66
2021/01/22 03:08:14;;;;;;;2.30;2.10;;;7.20;99.90;;;;;;5059993;28;20429;-67
2021/01/22 03:10:41;;;;;;;2.23;2.03;;;7.10;99.90;;;;;;5063964;28;20780;-66
2021/01/22 03:13:07;;;;;;;3.83;2.97;;;7.00;99.90;;;;;;5059142;28;20434;-66
2021/01/22 03:15:38;;;;;;;3.13;2.83;;;6.90;99.90;;;;;;5060579;28;20798;-66
2021/01/22 03:18:14;;;;;;;2.33;2.13;;;6.80;99.90;;;;;;5058464;28;20899;-66
2021/01/22 03:20:45;;;;;;;2.63;2.40;;;6.80;99.90;;;;;;5057735;28;20442;-66
2021/01/22 03:23:12;;;;;;;2.50;2.00;;;6.70;99.90;;;;;;5065607;28;20789;-66
2021/01/22 03:25:38;;;;;;;2.60;2.40;;;6.60;99.90;;;;;;5059172;28;20947;-66
2021/01/22 03:28:07;;;;;;;2.37;2.17;;;6.50;99.90;;;;;;5053436;28;20426;-66
2021/01/22 03:30:33;;;;;;;1.93;1.83;;;6.50;99.90;;;;;;5054217;28;20173;-66
2021/01/22 03:32:59;;;;;;;2.63;2.43;;;6.50;99.90;;;;;;5060109;28;20474;-66
2021/01/22 03:35:26;;;;;;;2.70;2.50;;;6.40;99.90;;;;;;5057570;28;20418;-66
2021/01/22 03:37:51;;;;;;;2.80;2.60;;;6.40;99.90;;;;;;5053818;28;20439;-66
2021/01/22 03:40:17;;;;;;;3.00;2.10;;;6.40;99.90;;;;;;5055540;28;20520;-66
2021/01/22 03:42:47;;;;;;;3.27;2.97;;;6.30;99.90;;;;;;5058353;28;20173;-66
2021/01/22 03:45:14;;;;;;;2.80;2.57;;;6.30;99.90;;;;;;5058569;28;20602;-66
2021/01/22 03:47:40;;;;;;;3.30;3.00;;;6.30;99.90;;;;;;5059042;28;20444;-66
2021/01/22 03:50:06;;;;;;;3.20;2.90;;;6.30;99.90;;;;;;5054039;28;20427;-66
2021/01/22 03:52:32;;;;;;;3.23;2.80;;;6.20;99.90;;;;;;5058912;28;20172;-66
2021/01/22 03:54:57;;;;;;;3.20;3.00;;;6.20;99.90;;;;;;5052390;28;20423;-66
2021/01/22 03:57:22;;;;;;;3.63;2.87;;;6.10;99.90;;;;;;5054892;28;20617;-66
2021/01/22 03:59:48;;;;;;;3.17;2.97;;;6.10;99.90;;;;;;5055083;28;20250;-66
2021/01/22 04:02:14;;;;;;;3.47;3.17;;;6.10;99.90;;;;;;5054356;28;20267;-66
2021/01/22 04:04:39;;;;;;;3.23;2.93;;;6.00;99.90;;;;;;5055153;28;20656;-66
2021/01/22 04:07:05;;;;;;;3.37;3.07;;;6.00;99.90;;;;;;5061003;28;20179;-66
2021/01/22 04:09:30;;;;;;;4.47;3.10;;;6.00;99.90;;;;;;5054223;28;20184;-66
2021/01/22 04:11:59;;;;;;;3.60;3.30;;;6.00;99.90;;;;;;5053917;28;20645;-66
2021/01/22 04:14:25;;;;;;;3.53;2.90;;;6.00;99.90;;;;;;5053584;28;20281;-66
2021/01/22 04:16:55;;;;;;;3.60;3.00;;;5.90;99.90;;;;;;5054012;28;20437;-66
2021/01/22 04:19:21;;;;;;;3.00;2.70;;;5.90;99.90;;;;;;5064990;28;20460;-66
2021/01/22 04:21:46;;;;;;;3.47;3.17;;;5.90;99.90;;;;;;5055574;28;20429;-66
2021/01/22 04:24:12;;;;;;;3.60;3.30;;;5.90;99.90;;;;;;5052457;28;20177;-66
2021/01/22 04:26:37;;;;;;;3.47;3.17;;;5.90;99.90;;;;;;5058272;28;20195;-69
2021/01/22 04:29:02;;;;;;;3.50;3.20;;;5.80;99.90;;;;;;5053821;28;20287;-66
2021/01/22 04:31:28;;;;;;;3.70;3.40;;;5.90;99.90;;;;;;5052796;28;20652;-66
2021/01/22 04:33:53;;;;;;;4.40;4.00;;;5.90;99.90;;;;;;5058315;28;20310;-66
2021/01/22 04:36:19;;;;;;;4.83;4.43;;;5.90;99.90;;;;;;5060362;28;20191;-66
2021/01/22 04:38:44;;;;;;;4.80;4.40;;;5.80;99.90;;;;;;5052236;28;20228;-66
2021/01/22 04:41:11;;;;;;;4.33;4.03;;;5.90;99.90;;;;;;5051804;28;20186;-66
2021/01/22 04:43:44;;;;;;;5.60;5.20;;;5.80;99.90;;;;;;5059447;28;20180;-66
2021/01/22 04:46:10;;;;;;;5.40;5.00;;;5.80;99.90;;;;;;5059429;28;20500;-66
2021/01/22 04:48:37;;;;;;;5.60;5.00;;;5.80;99.90;;;;;;5051466;28;20821;-66
2021/01/22 04:51:03;;;;;;;5.73;5.23;;;5.80;99.90;;;;;;5059993;28;20458;-66
2021/01/22 04:53:31;;;;;;;7.60;6.90;;;5.70;99.90;;;;;;5057463;28;20432;-66
2021/01/22 04:55:59;;;;;;;7.30;6.70;;;5.70;99.90;;;;;;5060867;28;20438;-66
2021/01/22 04:58:26;;;;;;;7.57;6.97;;;5.70;99.90;;;;;;5059781;28;20955;-66
2021/01/22 05:00:52;;;;;;;7.57;6.90;;;5.70;99.90;;;;;;5055393;28;20442;-66
2021/01/22 05:03:20;;;;;;;7.40;6.80;;;5.70;99.90;;;;;;5052904;28;20419;-66
2021/01/22 05:05:45;;;;;;;7.03;6.43;;;5.80;99.90;;;;;;5053044;28;20177;-66
2021/01/22 05:08:11;;;;;;;6.20;5.70;;;5.80;99.90;;;;;;5056929;28;20498;-66
2021/01/22 05:10:37;;;;;;;8.00;6.70;;;5.80;99.90;;;;;;5053180;28;20465;-66
2021/01/22 05:13:03;;;;;;;7.47;6.80;;;5.80;99.90;;;;;;5052333;28;20225;-66
2021/01/22 05:15:29;;;;;;;7.83;7.03;;;5.70;99.90;;;;;;5062120;28;20230;-66
2021/01/22 05:18:03;;;;;;;8.40;7.33;;;5.80;99.90;;;;;;5056847;28;20986;-66
2021/01/22 05:20:32;;;;;;;7.63;6.93;;;5.70;99.90;;;;;;5058614;28;20575;-66
2021/01/22 05:22:58;;;;;;;8.80;7.87;;;5.80;99.90;;;;;;5053129;28;20426;-66
2021/01/22 05:25:25;;;;;;;8.43;7.60;;;5.80;99.90;;;;;;5051423;28;20434;-66
2021/01/22 05:27:53;;;;;;;9.07;8.27;;;5.80;99.90;;;;;;5059071;28;20465;-66
2021/01/22 05:30:20;;;;;;;9.10;8.13;;;5.80;99.90;;;;;;5067838;28;20455;-66
2021/01/22 05:32:46;;;;;;;10.33;9.43;;;5.80;99.90;;;;;;5059558;28;20482;-66
2021/01/22 05:35:11;;;;;;;9.63;8.73;;;5.70;99.90;;;;;;5050963;28;20434;-66
2021/01/22 05:37:50;;;;;;;9.70;8.80;;;5.70;99.90;;;;;;5053446;28;20188;-66
2021/01/22 05:40:16;;;;;;;9.40;8.60;;;5.70;99.90;;;;;;5052197;28;20220;-66
2021/01/22 05:42:53;;;;;;;9.73;8.80;;;5.70;99.90;;;;;;5064945;28;20476;-66
2021/01/22 05:45:42;;;;;;;9.97;9.00;;;5.70;99.90;;;;;;5061167;28;20188;-66
2021/01/22 05:48:24;;;;;;;10.40;8.60;;;5.70;99.90;;;;;;5060619;28;20525;-66
2021/01/22 05:50:58;;;;;;;9.77;8.87;;;5.70;99.90;;;;;;5060180;28;20448;-66
2021/01/22 05:53:25;;;;;;;11.10;10.00;;;5.60;99.90;;;;;;5053111;28;20425;-66
2021/01/22 05:56:11;;;;;;;10.17;9.27;;;5.60;99.90;;;;;;5063000;28;20430;-66
2021/01/22 05:58:38;;;;;;;11.33;10.13;;;5.60;99.90;;;;;;5054412;28;20498;-66
2021/01/22 06:01:11;;;;;;;17.60;10.60;;;5.60;99.90;;;;;;5052400;28;20433;-66
2021/01/22 06:03:38;;;;;;;11.70;10.50;;;5.60;99.90;;;;;;5052431;28;21208;-66
2021/01/22 06:06:05;;;;;;;13.20;11.90;;;5.60;99.90;;;;;;5059085;28;20425;-66
2021/01/22 06:08:30;;;;;;;11.93;10.70;;;5.60;99.90;;;;;;5052328;28;20419;-66
2021/01/22 06:10:59;;;;;;;11.07;9.97;;;5.60;99.90;;;;;;5054701;28;21025;-66
2021/01/22 06:13:26;;;;;;;12.43;11.20;;;5.60;99.90;;;;;;5060238;28;20212;-66
2021/01/22 06:15:56;;;;;;;13.90;12.40;;;5.60;99.90;;;;;;5056828;28;20886;-66
2021/01/22 06:18:30;;;;;;;13.87;12.40;;;5.60;99.90;;;;;;5056050;28;20479;-66
2021/01/22 06:21:13;;;;;;;11.50;10.30;;;5.50;99.90;;;;;;5057117;28;20490;-66
2021/01/22 06:23:39;;;;;;;11.77;10.63;;;5.50;99.90;;;;;;5061058;28;20418;-66
2021/01/22 06:26:05;;;;;;;12.70;11.43;;;5.50;99.90;;;;;;5062113;28;20430;-66
2021/01/22 06:28:32;;;;;;;12.47;11.27;;;5.50;99.90;;;;;;5062100;28;20427;-66
2021/01/22 06:30:58;;;;;;;12.70;11.40;;;5.50;99.90;;;;;;5061664;28;21025;-66
2021/01/22 06:33:24;;;;;;;12.43;11.10;;;5.50;99.90;;;;;;5065625;28;20645;-66
2021/01/22 06:35:50;;;;;;;12.87;11.57;;;5.50;99.90;;;;;;5061411;28;20180;-66
2021/01/22 06:38:20;;;;;;;13.43;12.00;;;5.50;99.90;;;;;;5065054;28;20948;-66
2021/01/22 06:40:45;;;;;;;14.83;11.60;;;5.50;99.90;;;;;;5059183;28;20907;-66
2021/01/22 06:43:11;;;;;;;12.80;11.60;;;5.50;99.90;;;;;;5055100;28;20433;-66
2021/01/22 06:45:38;;;;;;;16.10;13.13;;;5.50;99.90;;;;;;5055570;28;20638;-66
2021/01/22 06:48:06;;;;;;;14.70;13.10;;;5.50;99.90;;;;;;5059228;28;20176;-66
2021/01/22 06:50:33;;;;;;;14.83;13.33;;;5.50;99.90;;;;;;5063820;28;20986;-66
2021/01/22 06:53:09;;;;;;;14.90;13.03;;;5.50;99.90;;;;;;5061708;28;20443;-66
2021/01/22 06:55:50;;;;;;;14.93;13.10;;;5.50;99.90;;;;;;5056625;28;20891;-66
2021/01/22 06:58:29;;;;;;;15.23;13.30;;;5.50;99.90;;;;;;5061259;28;20446;-66
2021/01/22 07:00:59;;;;;;;18.27;13.70;;;5.50;99.90;;;;;;5054592;28;20521;-66
2021/01/22 07:03:37;;;;;;;14.63;12.03;;;5.50;99.90;;;;;;5063372;28;20421;-66
2021/01/22 07:06:03;;;;;;;13.90;12.00;;;5.50;99.90;;;;;;5062660;28;20453;-66
2021/01/22 07:08:51;;;;;;;14.80;12.17;;;5.50;99.90;;;;;;5057163;28;20422;-66
2021/01/22 07:11:16;;;;;;;18.83;12.57;;;5.60;99.90;;;;;;5057705;28;20919;-66
2021/01/22 07:13:44;;;;;;;12.43;11.13;;;5.60;99.90;;;;;;5055765;28;20455;-66
2021/01/22 07:16:22;;;;;;;15.23;12.07;;;5.60;99.90;;;;;;5054000;28;20172;-66
2021/01/22 07:18:50;;;;;;;12.13;10.50;;;5.60;99.90;;;;;;5054899;28;20530;-66
2021/01/22 07:21:23;;;;;;;12.93;11.53;;;5.60;99.90;;;;;;5062101;28;20425;-66
2021/01/22 07:23:52;;;;;;;12.53;10.07;;;5.60;99.90;;;;;;5059968;28;20524;-66
2021/01/22 07:26:18;;;;;;;14.43;12.13;;;5.60;99.90;;;;;;5060498;28;20427;-66
2021/01/22 07:28:51;;;;;;;16.30;11.00;;;5.60;99.90;;;;;;5055117;28;20497;-66
2021/01/22 07:31:53;;;;;;;14.80;12.10;;;5.60;99.90;;;;;;5064271;28;20599;-66
2021/01/22 07:34:36;;;;;;;14.37;11.50;;;5.60;99.90;;;;;;5056452;28;20426;-66
2021/01/22 07:37:06;;;;;;;12.40;10.83;;;5.60;99.90;;;;;;5057837;28;20414;-66
2021/01/22 07:39:32;;;;;;;12.33;10.70;;;5.60;99.90;;;;;;5054083;28;20477;-66
2021/01/22 07:42:11;;;;;;;13.33;11.93;;;5.60;99.90;;;;;;5057045;28;20453;-66
2021/01/22 07:44:39;;;;;;;14.27;12.63;;;5.60;99.90;;;;;;5060805;28;20453;-66
2021/01/22 07:47:05;;;;;;;14.27;12.33;;;5.60;99.90;;;;;;5058018;28;20425;-66
2021/01/22 07:49:31;;;;;;;15.03;12.73;;;5.70;99.90;;;;;;5055932;28;20914;-66
2021/01/22 07:52:02;;;;;;;12.93;11.57;;;5.70;99.90;;;;;;5056188;28;20426;-66
2021/01/22 07:54:40;;;;;;;14.40;11.70;;;5.70;99.90;;;;;;5064833;28;20453;-66
2021/01/22 07:57:25;;;;;;;15.10;11.40;;;5.70;99.90;;;;;;5059588;28;20433;-66
2021/01/22 07:59:52;;;;;;;12.60;11.03;;;5.70;99.90;;;;;;5054727;28;20942;-66
2021/01/22 08:02:22;;;;;;;12.87;11.37;;;5.70;99.90;;;;;;5067847;28;20414;-66
2021/01/22 08:04:59;;;;;;;13.40;11.57;;;5.70;99.90;;;;;;5055060;28;20505;-66
2021/01/22 08:07:39;;;;;;;11.87;10.63;;;5.70;99.90;;;;;;5054949;28;20422;-66
2021/01/22 08:10:07;;;;;;;12.47;11.17;;;5.70;99.90;;;;;;5053474;28;20934;-66
2021/01/22 08:12:32;;;;;;;13.00;10.80;;;5.70;99.90;;;;;;5055801;28;20541;-66
2021/01/22 08:14:58;;;;;;;12.40;10.63;;;5.70;99.90;;;;;;5060040;28;20995;-66
2021/01/22 08:17:25;;;;;;;11.67;10.37;;;5.70;99.90;;;;;;5056733;28;20175;-66
2021/01/22 08:19:51;;;;;;;11.60;10.33;;;5.60;99.90;;;;;;5053940;28;20661;-66
2021/01/22 08:22:17;;;;;;;14.63;11.80;;;5.60;99.90;;;;;;5057736;28;20435;-66
2021/01/22 08:24:50;;;;;;;13.43;10.67;;;5.60;99.90;;;;;;5060392;28;20440;-66
2021/01/22 08:27:20;;;;;;;11.40;10.20;;;5.70;99.90;;;;;;5055491;28;20415;-66
2021/01/22 08:29:46;;;;;;;11.70;10.50;;;5.70;99.90;;;;;;5054493;28;20429;-66
2021/01/22 08:32:14;;;;;;;13.80;11.10;;;5.80;99.90;;;;;;5049845;28;20454;-66
2021/01/22 08:34:40;;;;;;;10.70;9.03;;;5.80;99.90;;;;;;5044916;28;20187;-66
2021/01/22 08:37:08;;;;;;;11.70;10.43;;;5.80;99.90;;;;;;5053016;28;20760;-66
2021/01/22 08:39:59;;;;;;;11.73;10.20;;;5.90;99.90;;;;;;5055378;28;21112;-66
2021/01/22 08:42:27;;;;;;;10.67;9.57;;;5.90;99.90;;;;;;5059824;28;20415;-66
2021/01/22 08:45:00;;;;;;;12.30;9.40;;;6.00;99.90;;;;;;5054090;28;20836;-66
2021/01/22 08:47:32;;;;;;;15.23;9.50;;;6.00;99.90;;;;;;5059050;28;20922;-66
2021/01/22 08:49:59;;;;;;;9.93;8.87;;;6.00;99.90;;;;;;5057109;28;20866;-66
2021/01/22 08:52:26;;;;;;;10.40;8.90;;;6.00;99.90;;;;;;5060092;28;20421;-66
2021/01/22 08:54:58;;;;;;;9.87;8.87;;;6.10;99.90;;;;;;5056138;28;20430;-66
2021/01/22 08:57:26;;;;;;;9.90;8.90;;;6.10;99.90;;;;;;5055541;28;20495;-66
2021/01/22 08:59:52;;;;;;;10.87;8.63;;;6.00;99.90;;;;;;5065738;28;20457;-66
2021/01/22 09:02:37;;;;;;;10.37;9.00;;;6.00;99.90;;;;;;5060071;28;20796;-66
2021/01/22 09:05:07;;;;;;;11.33;9.43;;;6.10;99.90;;;;;;5057055;28;20455;-66
2021/01/22 09:07:33;;;;;;;10.97;8.13;;;6.10;99.90;;;;;;5058906;28;20832;-66
2021/01/22 09:09:59;;;;;;;11.50;9.00;;;6.10;99.90;;;;;;5052791;28;20903;-66
2021/01/22 09:12:29;;;;;;;9.53;8.50;;;6.20;99.90;;;;;;5054095;28;20203;-66
2021/01/22 09:15:00;;;;;;;8.63;7.80;;;6.20;99.90;;;;;;5057589;28;20190;-66
2021/01/22 09:17:36;;;;;;;11.97;8.40;;;6.20;99.90;;;;;;5054200;28;20418;-66
2021/01/22 09:20:08;;;;;;;10.10;8.50;;;6.30;99.90;;;;;;5058426;28;20450;-66
2021/01/22 09:22:34;;;;;;;8.27;7.20;;;6.40;99.90;;;;;;5051832;28;20414;-66
2021/01/22 09:25:02;;;;;;;8.60;7.27;;;6.50;99.90;;;;;;5055179;28;20430;-66
2021/01/22 09:27:29;;;;;;;9.70;8.10;;;6.60;99.90;;;;;;5054050;28;20418;-66
2021/01/22 09:29:54;;;;;;;11.13;7.27;;;6.60;99.90;;;;;;5063537;28;20423;-66
2021/01/22 09:32:20;;;;;;;7.87;7.07;;;6.60;99.90;;;;;;5059840;28;20472;-66
2021/01/22 09:34:46;;;;;;;8.97;7.73;;;6.60;99.90;;;;;;5057841;28;20180;-66
2021/01/22 09:37:11;;;;;;;8.07;7.10;;;6.60;99.90;;;;;;5064981;28;20445;-66
2021/01/22 09:39:37;;;;;;;7.67;6.83;;;6.70;99.90;;;;;;5059029;28;20535;-66
2021/01/22 09:42:03;;;;;;;7.47;6.37;;;6.70;99.90;;;;;;5065197;28;20692;-66
2021/01/22 09:44:28;;;;;;;7.67;6.70;;;6.80;99.90;;;;;;5054238;28;20645;-66
2021/01/22 09:46:54;;;;;;;7.73;6.37;;;6.90;99.90;;;;;;5055223;28;20172;-66
2021/01/22 09:49:20;;;;;;;8.13;6.87;;;6.90;99.90;;;;;;5055447;28;20184;-66
2021/01/22 09:51:45;;;;;;;6.77;5.80;;;6.90;99.90;;;;;;5067913;28;20183;-66
2021/01/22 09:54:11;;;;;;;10.90;7.00;;;6.90;99.90;;;;;;5055499;28;20229;-66
2021/01/22 09:56:37;;;;;;;8.20;5.93;;;6.90;99.90;;;;;;5060144;28;20176;-66
2021/01/22 09:59:07;;;;;;;7.20;5.40;;;7.00;99.90;;;;;;5058625;28;20203;-66
2021/01/22 10:01:34;;;;;;;8.70;6.40;;;7.00;99.90;;;;;;5057842;28;20698;-66
2021/01/22 10:04:00;;;;;;;6.50;5.80;;;7.10;99.90;;;;;;5059735;28;20425;-66
2021/01/22 10:06:25;;;;;;;9.10;6.63;;;7.20;99.90;;;;;;5057772;28;20430;-66
2021/01/22 10:08:51;;;;;;;7.70;6.13;;;7.20;99.90;;;;;;5060265;28;20177;-66
2021/01/22 10:11:16;;;;;;;8.23;6.23;;;7.30;99.90;;;;;;5058585;28;20185;-66
2021/01/22 10:13:42;;;;;;;9.37;7.23;;;7.40;99.90;;;;;;5056696;28;20273;-66
2021/01/22 10:16:07;;;;;;;7.97;7.17;;;7.50;99.90;;;;;;5055831;28;20293;-66
2021/01/22 10:18:33;;;;;;;6.80;6.20;;;7.60;99.90;;;;;;5057700;28;20191;-66
2021/01/22 10:20:58;;;;;;;7.63;5.40;;;7.60;99.90;;;;;;5055673;28;20298;-66
2021/01/22 10:23:24;;;;;;;7.90;6.23;;;7.60;99.90;;;;;;5060210;28;20171;-66
2021/01/22 10:25:49;;;;;;;6.10;5.60;;;7.60;99.90;;;;;;5057587;28;20187;-66
2021/01/22 10:28:15;;;;;;;8.33;6.40;;;7.60;99.90;;;;;;5055645;28;20754;-66
2021/01/22 10:30:40;;;;;;;7.80;5.50;;;7.60;99.90;;;;;;5055234;28;20307;-66
2021/01/22 10:33:06;;;;;;;7.50;6.17;;;7.70;99.90;;;;;;5061668;28;20232;-66
2021/01/22 10:35:32;;;;;;;7.90;6.20;;;7.80;99.90;;;;;;5062280;28;20176;-66
2021/01/22 10:37:57;;;;;;;8.23;6.20;;;7.90;99.90;;;;;;5054969;28;20547;-66
2021/01/22 10:40:23;;;;;;;10.43;5.67;;;7.90;99.90;;;;;;5054966;28;20200;-66
2021/01/22 10:42:48;;;;;;;5.70;4.67;;;7.90;99.90;;;;;;5059185;28;20314;-66
2021/01/22 10:45:14;;;;;;;9.07;5.90;;;8.00;99.90;;;;;;5059604;28;20165;-66
2021/01/22 10:47:39;;;;;;;7.83;5.00;;;8.00;99.90;;;;;;5057300;28;20218;-66
2021/01/22 10:50:07;;;;;;;6.53;5.03;;;8.00;99.90;;;;;;5064493;28;20259;-66
2021/01/22 10:52:33;;;;;;;6.67;6.07;;;8.10;99.90;;;;;;5055005;28;20164;-66
2021/01/22 10:54:58;;;;;;;9.40;5.33;;;8.10;99.90;;;;;;5057041;28;21091;-66
2021/01/22 10:57:24;;;;;;;8.07;5.80;;;8.20;99.90;;;;;;5054782;28;20430;-66
2021/01/22 10:59:49;;;;;;;6.30;5.00;;;8.20;99.90;;;;;;5061673;28;20200;-66
2021/01/22 11:02:14;;;;;;;6.10;5.50;;;8.20;99.90;;;;;;5061169;28;20536;-66
2021/01/22 11:04:40;;;;;;;7.37;5.50;;;8.20;99.90;;;;;;5062100;28;20275;-66
2021/01/22 11:07:07;;;;;;;6.73;5.10;;;8.20;99.90;;;;;;5057837;28;20786;-66
2021/01/22 11:09:33;;;;;;;6.67;5.23;;;8.20;99.90;;;;;;5055351;28;20435;-66
2021/01/22 11:11:58;;;;;;;11.57;6.07;;;8.20;99.90;;;;;;5057769;28;20435;-66
2021/01/22 11:14:24;;;;;;;9.73;5.90;;;8.20;99.90;;;;;;5057036;28;20437;-66
2021/01/22 11:16:49;;;;;;;8.23;5.50;;;8.20;99.90;;;;;;5053851;28;20187;-66
2021/01/22 11:19:15;;;;;;;7.17;5.80;;;8.20;99.90;;;;;;5056593;28;20245;-66
2021/01/22 11:21:40;;;;;;;8.43;6.03;;;8.20;99.90;;;;;;5060250;28;20190;-66
2021/01/22 11:24:06;;;;;;;11.63;6.87;;;8.20;99.90;;;;;;5058217;28;20266;-66
2021/01/22 11:26:32;;;;;;;10.33;6.10;;;8.20;99.90;;;;;;5058804;28;20237;-66
2021/01/22 11:28:58;;;;;;;7.77;5.80;;;8.20;99.90;;;;;;5055444;28;20433;-66
2021/01/22 11:31:24;;;;;;;9.20;5.30;;;8.20;99.90;;;;;;5055192;28;20534;-66
2021/01/22 11:33:50;;;;;;;7.27;5.27;;;8.30;99.90;;;;;;5055361;28;20232;-66
2021/01/22 11:36:15;;;;;;;7.17;5.57;;;8.30;99.90;;;;;;5061105;28;20433;-66
2021/01/22 11:38:41;;;;;;;12.83;5.90;;;8.40;99.90;;;;;;5053231;28;20508;-66
2021/01/22 11:41:06;;;;;;;7.30;5.40;;;8.40;99.90;;;;;;5059093;28;20604;-66
2021/01/22 11:43:32;;;;;;;8.63;6.20;;;8.40;99.90;;;;;;5054295;28;20671;-66
2021/01/22 11:45:57;;;;;;;6.53;5.43;;;8.40;99.90;;;;;;5058409;28;20654;-66
2021/01/22 11:48:23;;;;;;;7.47;6.33;;;8.50;99.90;;;;;;5055968;28;20695;-66
2021/01/22 11:50:48;;;;;;;6.80;5.53;;;8.50;99.90;;;;;;5055119;28;20203;-66
2021/01/22 11:53:13;;;;;;;10.23;6.40;;;8.50;99.90;;;;;;5056067;28;20187;-66
2021/01/22 11:55:40;;;;;;;9.97;6.70;;;8.50;99.90;;;;;;5057755;28;20544;-66
2021/01/22 11:58:06;;;;;;;7.67;6.87;;;8.50;99.90;;;;;;5066109;28;20180;-66
2021/01/22 12:00:31;;;;;;;9.30;5.83;;;8.50;99.90;;;;;;5059652;28;20457;-66
2021/01/22 12:02:57;;;;;;;8.47;6.60;;;8.40;99.90;;;;;;5060639;28;20169;-66
2021/01/22 12:05:23;;;;;;;8.67;7.20;;;8.40;99.90;;;;;;5058677;28;20568;-66
2021/01/22 12:07:49;;;;;;;7.53;5.63;;;8.40;99.90;;;;;;5062411;28;20569;-66
2021/01/22 12:10:15;;;;;;;9.93;5.93;;;8.40;99.90;;;;;;5056537;28;20521;-66
2021/01/22 12:12:42;;;;;;;6.70;6.00;;;8.40;99.90;;;;;;5052997;28;20919;-66
2021/01/22 12:15:08;;;;;;;9.53;6.93;;;8.40;99.90;;;;;;5052448;28;20549;-66
2021/01/22 12:17:34;;;;;;;6.93;6.00;;;8.40;99.90;;;;;;5063301;28;20428;-66
2021/01/22 12:19:59;;;;;;;8.53;6.37;;;8.40;99.90;;;;;;5055190;28;20830;-66
2021/01/22 12:22:24;;;;;;;11.37;6.53;;;8.40;99.90;;;;;;5059378;28;20237;-66
2021/01/22 12:24:50;;;;;;;11.97;7.10;;;8.40;99.90;;;;;;5057512;28;20176;-66
2021/01/22 12:27:16;;;;;;;9.13;5.90;;;8.40;99.90;;;;;;5053064;28;20184;-66
2021/01/22 12:29:41;;;;;;;7.27;5.80;;;8.30;99.90;;;;;;5052351;28;20185;-66
2021/01/22 12:32:07;;;;;;;7.80;5.43;;;8.30;99.90;;;;;;5067522;28;20220;-66
2021/01/22 12:34:32;;;;;;;6.50;5.50;;;8.30;99.90;;;;;;5057568;28;20739;-66
2021/01/22 12:36:58;;;;;;;6.00;4.83;;;8.20;99.90;;;;;;5057324;28;20594;-66
2021/01/22 12:39:23;;;;;;;8.67;6.10;;;8.30;99.90;;;;;;5053792;28;20249;-66
2021/01/22 12:41:50;;;;;;;5.50;4.90;;;8.30;99.90;;;;;;5058259;28;20180;-66
2021/01/22 12:44:16;;;;;;;8.20;6.20;;;8.30;99.90;;;;;;5056645;28;20186;-66
2021/01/22 12:46:41;;;;;;;6.77;6.07;;;8.30;99.90;;;;;;5057416;28;20423;-66
2021/01/22 12:49:07;;;;;;;6.87;5.77;;;8.30;99.90;;;;;;5056029;28;20199;-66
2021/01/22 12:51:32;;;;;;;6.40;5.80;;;8.30;99.90;;;;;;5053911;28;20191;-66
2021/01/22 12:53:58;;;;;;;4.80;4.37;;;8.20;99.90;;;;;;5054274;28;20176;-66
2021/01/22 12:56:23;;;;;;;5.87;4.93;;;8.20;99.90;;;;;;5052678;28;20179;-66